Time;durP1;ratioP1;P1;durP2;ratioP2;P2;SDS_P1;SDS_P2;PMS_P1;PMS_P2;Temp;Humidity;BMP_temperature;BMP_pressure;BME280_temperature;BME280_humidity;BME280_pressure;Samples;Min_cycle;Max_cycle;Signal;HPM_P1;HPM_P2
2022/11/06 00:02:22;;;;;;;7.28;5.30;;;;;;;;;;12709755;23;20386;-91
2022/11/06 00:07:29;;;;;;;11.70;7.30;;;;;;;;;;12666102;23;20704;-89
2022/11/06 00:12:31;;;;;;;12.17;8.47;;;;;;;;;;12662093;23;20375;-89
2022/11/06 00:17:37;;;;;;;14.30;9.45;;;;;;;;;;12662415;23;20379;-89
2022/11/06 00:22:40;;;;;;;13.15;9.13;;;;;;;;;;12661574;23;20401;-90
2022/11/06 00:27:43;;;;;;;14.27;9.37;;;;;;;;;;12664607;23;20758;-90
2022/11/06 00:32:49;;;;;;;12.48;8.80;;;;;;;;;;12664139;23;20378;-88
2022/11/06 00:37:56;;;;;;;14.35;9.05;;;;;;;;;;12662335;23;20390;-88
2022/11/06 00:42:58;;;;;;;16.20;10.80;;;;;;;;;;12666663;23;20410;-89
2022/11/06 00:48:11;;;;;;;15.63;11.37;;;;;;;;;;12703764;23;20383;-90
2022/11/06 00:53:15;;;;;;;13.93;9.85;;;;;;;;;;12661588;23;20386;-87
2022/11/06 00:58:17;;;;;;;10.20;7.33;;;;;;;;;;12661710;23;20475;-89
2022/11/06 01:03:19;;;;;;;9.05;6.60;;;;;;;;;;12654582;23;20426;-90
2022/11/06 01:08:22;;;;;;;10.23;6.82;;;;;;;;;;12661321;23;20375;-90
2022/11/06 01:13:25;;;;;;;8.93;5.55;;;;;;;;;;12662804;23;20703;-90
2022/11/06 01:18:30;;;;;;;7.75;4.78;;;;;;;;;;12663379;23;20386;-90
2022/11/06 01:23:33;;;;;;;7.25;5.38;;;;;;;;;;12663418;23;20387;-89
2022/11/06 01:28:36;;;;;;;7.30;5.00;;;;;;;;;;12662109;23;20678;-89
2022/11/06 01:33:38;;;;;;;6.93;4.88;;;;;;;;;;12663336;23;20901;-89
2022/11/06 01:38:42;;;;;;;8.05;5.03;;;;;;;;;;12665342;23;20391;-90
2022/11/06 01:43:47;;;;;;;6.83;4.57;;;;;;;;;;12669675;23;20437;-90
2022/11/06 01:48:56;;;;;;;6.88;4.22;;;;;;;;;;12692957;23;20371;-90
2022/11/06 01:54:00;;;;;;;5.75;4.07;;;;;;;;;;12699546;23;20386;-90
2022/11/06 01:59:03;;;;;;;5.18;3.67;;;;;;;;;;12663980;23;20383;-90
2022/11/06 02:04:09;;;;;;;6.47;4.72;;;;;;;;;;12666366;23;20374;-89
2022/11/06 02:09:14;;;;;;;4.70;3.70;;;;;;;;;;12665961;23;20457;-89
2022/11/06 02:14:24;;;;;;;5.50;3.70;;;;;;;;;;12665503;23;20375;-90
2022/11/06 02:19:54;;;;;;;4.73;3.60;;;;;;;;;;12665214;23;20387;-90
2022/11/06 02:25:15;;;;;;;4.20;3.10;;;;;;;;;;12665183;23;20375;-88
2022/11/06 02:30:19;;;;;;;4.18;3.03;;;;;;;;;;12664248;23;20375;-89
2022/11/06 02:35:27;;;;;;;5.07;3.00;;;;;;;;;;12663584;23;20578;-91
2022/11/06 02:40:33;;;;;;;5.15;3.15;;;;;;;;;;12663778;23;20926;-90
2022/11/06 02:45:46;;;;;;;4.88;3.00;;;;;;;;;;12663894;23;20435;-89
2022/11/06 02:50:51;;;;;;;4.43;2.93;;;;;;;;;;12662802;23;20491;-89
2022/11/06 02:55:57;;;;;;;4.55;2.90;;;;;;;;;;12663524;23;20375;-89
2022/11/06 03:01:12;;;;;;;3.57;2.80;;;;;;;;;;12663384;23;20454;-89
2022/11/06 03:06:21;;;;;;;4.25;2.90;;;;;;;;;;12663446;23;20419;-91
2022/11/06 03:11:28;;;;;;;3.47;2.63;;;;;;;;;;12663481;23;20839;-90
2022/11/06 03:16:43;;;;;;;3.53;2.63;;;;;;;;;;12664551;23;20430;-90
2022/11/06 03:21:54;;;;;;;3.10;2.50;;;;;;;;;;12663183;23;20429;-91
2022/11/06 03:26:58;;;;;;;3.92;2.60;;;;;;;;;;12663286;23;20375;-90
2022/11/06 03:32:14;;;;;;;3.83;2.50;;;;;;;;;;12663428;23;20375;-89
2022/11/06 03:37:23;;;;;;;3.53;2.60;;;;;;;;;;12663805;23;20442;-89
2022/11/06 03:42:29;;;;;;;3.05;2.63;;;;;;;;;;12664058;23;20401;-90
2022/11/06 03:47:41;;;;;;;3.47;2.60;;;;;;;;;;12665236;23;20919;-88
2022/11/06 03:52:50;;;;;;;3.30;2.80;;;;;;;;;;12670561;23;20449;-89
2022/11/06 03:57:57;;;;;;;4.45;2.85;;;;;;;;;;12705991;23;20375;-90
2022/11/06 04:03:07;;;;;;;3.85;2.58;;;;;;;;;;12662846;23;20425;-89
2022/11/06 04:14:00;;;;;;;3.63;2.63;;;;;;;;;;12662451;23;20442;-91
2022/11/06 04:19:14;;;;;;;3.27;2.27;;;;;;;;;;12661869;23;20810;-89
2022/11/06 04:30:04;;;;;;;3.03;2.53;;;;;;;;;;12661931;23;20384;-89
2022/11/06 04:35:17;;;;;;;5.15;2.58;;;;;;;;;;12662690;23;20466;-90
2022/11/06 04:40:26;;;;;;;4.37;2.50;;;;;;;;;;12662206;23;20391;-89
2022/11/06 04:45:32;;;;;;;4.45;2.80;;;;;;;;;;12662485;23;20382;-90
2022/11/06 04:50:42;;;;;;;4.30;2.53;;;;;;;;;;12662942;23;20384;-91
2022/11/06 04:55:48;;;;;;;4.13;2.55;;;;;;;;;;12662172;23;20386;-89
2022/11/06 05:00:51;;;;;;;3.55;2.08;;;;;;;;;;12662093;23;20386;-90
2022/11/06 05:05:57;;;;;;;4.03;2.20;;;;;;;;;;12661795;23;20441;-88
2022/11/06 05:10:59;;;;;;;2.63;2.15;;;;;;;;;;12661910;23;20386;-90
2022/11/06 05:16:01;;;;;;;2.85;2.00;;;;;;;;;;12661562;23;20466;-89
2022/11/06 05:26:36;;;;;;;3.08;2.10;;;;;;;;;;12554590;23;20438;-90
2022/11/06 05:31:47;;;;;;;2.95;2.10;;;;;;;;;;12661532;23;20371;-90
2022/11/06 05:36:53;;;;;;;4.25;3.00;;;;;;;;;;12665618;23;20419;-89
2022/11/06 05:41:55;;;;;;;3.60;2.27;;;;;;;;;;12666216;23;20389;-89
2022/11/06 05:46:57;;;;;;;3.53;2.50;;;;;;;;;;12666079;23;20386;-89
2022/11/06 05:52:01;;;;;;;4.80;2.40;;;;;;;;;;12666614;23;20391;-91
2022/11/06 05:57:03;;;;;;;3.70;2.10;;;;;;;;;;12667289;23;20461;-90
2022/11/06 06:02:05;;;;;;;2.65;2.08;;;;;;;;;;12667012;23;20383;-90
2022/11/06 06:07:12;;;;;;;2.33;1.77;;;;;;;;;;12667955;23;20423;-90
2022/11/06 06:12:25;;;;;;;2.30;1.60;;;;;;;;;;12659128;23;20405;-89
2022/11/06 06:17:34;;;;;;;2.50;1.80;;;;;;;;;;12718110;23;20427;-89
2022/11/06 06:22:38;;;;;;;2.10;1.77;;;;;;;;;;12716159;23;20386;-89
2022/11/06 06:27:52;;;;;;;2.80;1.80;;;;;;;;;;12723939;23;20439;-89
2022/11/06 06:33:06;;;;;;;3.00;1.50;;;;;;;;;;12701764;23;20378;-87
2022/11/06 06:38:09;;;;;;;2.53;1.73;;;;;;;;;;12676760;23;20371;-89
2022/11/06 06:43:11;;;;;;;2.53;1.90;;;;;;;;;;12672001;23;20454;-89
2022/11/06 06:48:13;;;;;;;2.13;1.60;;;;;;;;;;12670252;23;20380;-88
2022/11/06 06:53:24;;;;;;;2.63;1.55;;;;;;;;;;12670336;23;20380;-88
2022/11/06 06:58:33;;;;;;;2.10;1.30;;;;;;;;;;12671930;23;20419;-90
2022/11/06 07:03:39;;;;;;;3.55;1.90;;;;;;;;;;12677499;23;20394;-89
2022/11/06 07:08:42;;;;;;;2.70;1.90;;;;;;;;;;12696539;23;20426;-88
2022/11/06 07:13:44;;;;;;;3.88;2.03;;;;;;;;;;12667397;23;20462;-88
2022/11/06 07:18:46;;;;;;;3.25;1.83;;;;;;;;;;12666463;23;20450;-90
2022/11/06 07:23:50;;;;;;;3.90;1.80;;;;;;;;;;12664459;23;20389;-89
2022/11/06 07:28:54;;;;;;;4.10;1.90;;;;;;;;;;12663985;23;20375;-89
2022/11/06 07:33:57;;;;;;;3.20;2.00;;;;;;;;;;12667633;23;20367;-88
2022/11/06 07:39:03;;;;;;;3.53;1.93;;;;;;;;;;12661600;23;20379;-87
2022/11/06 07:44:05;;;;;;;3.28;2.08;;;;;;;;;;12660986;23;20925;-88
2022/11/06 07:49:07;;;;;;;3.88;2.10;;;;;;;;;;12663007;23;20693;-88
2022/11/06 07:54:12;;;;;;;3.60;1.80;;;;;;;;;;12659579;23;20379;-88
2022/11/06 07:59:14;;;;;;;2.65;1.67;;;;;;;;;;12650189;23;20370;-88
2022/11/06 08:04:16;;;;;;;2.75;1.95;;;;;;;;;;12698033;23;20407;-89
2022/11/06 08:09:36;;;;;;;2.13;1.70;;;;;;;;;;12684504;23;20375;-90
2022/11/06 08:14:38;;;;;;;2.42;1.80;;;;;;;;;;12664122;23;20428;-89
2022/11/06 08:19:40;;;;;;;2.30;1.60;;;;;;;;;;12662094;23;20454;-88
2022/11/06 08:24:54;;;;;;;2.77;2.00;;;;;;;;;;12661554;23;20374;-89
2022/11/06 08:29:56;;;;;;;2.70;1.80;;;;;;;;;;12665570;23;20375;-90
2022/11/06 08:34:58;;;;;;;2.30;1.60;;;;;;;;;;12665989;23;20708;-89
2022/11/06 08:40:05;;;;;;;2.90;1.90;;;;;;;;;;12665772;23;20927;-91
2022/11/06 08:50:50;;;;;;;2.40;1.50;;;;;;;;;;12665700;23;20370;-91
2022/11/06 08:55:55;;;;;;;4.20;1.65;;;;;;;;;;12661558;23;20379;-88
2022/11/06 09:00:57;;;;;;;3.35;1.73;;;;;;;;;;12659263;23;20418;-88
2022/11/06 09:05:59;;;;;;;2.08;1.40;;;;;;;;;;12660377;23;20430;-88
2022/11/06 09:11:07;;;;;;;1.67;1.15;;;;;;;;;;12664839;23;20375;-89
2022/11/06 09:16:09;;;;;;;2.10;0.70;;;;;;;;;;12664101;23;20469;-89
2022/11/06 09:21:11;;;;;;;1.45;0.70;;;;;;;;;;12663704;23;20398;-88
2022/11/06 09:26:14;;;;;;;1.70;0.77;;;;;;;;;;12664357;23;20375;-88
2022/11/06 09:31:17;;;;;;;1.00;0.70;;;;;;;;;;12663547;23;20434;-89
2022/11/06 09:36:19;;;;;;;0.95;0.63;;;;;;;;;;12664068;23;20386;-88
2022/11/06 09:41:36;;;;;;;1.10;0.70;;;;;;;;;;12662494;23;20387;-89
2022/11/06 09:46:42;;;;;;;1.00;0.82;;;;;;;;;;12663524;23;20379;-89
2022/11/06 09:51:52;;;;;;;0.80;0.60;;;;;;;;;;12665465;23;20385;-90
2022/11/06 09:57:03;;;;;;;0.57;0.45;;;;;;;;;;12664829;23;20386;-90
2022/11/06 10:02:27;;;;;;;0.68;0.40;;;;;;;;;;12663899;23;20395;-89
2022/11/06 10:07:38;;;;;;;1.40;0.40;;;;;;;;;;12664495;23;20391;-90
2022/11/06 10:13:02;;;;;;;0.70;0.40;;;;;;;;;;12660113;23;20379;-88
2022/11/06 10:18:16;;;;;;;1.45;0.50;;;;;;;;;;12659345;23;20374;-86
2022/11/06 10:23:31;;;;;;;0.65;0.30;;;;;;;;;;12651585;23;20430;-89
2022/11/06 10:29:24;;;;;;;1.00;0.30;;;;;;;;;;12663678;23;20451;-88
2022/11/06 10:34:37;;;;;;;0.50;0.43;;;;;;;;;;12668386;23;20371;-90
2022/11/06 10:45:52;;;;;;;;;;;;;;;;;;;;;
2022/11/06 11:03:08;;;;;;;1.20;0.70;;;;;;;;;;12733669;23;20381;-88
2022/11/06 13:58:39;;;;;;;6.15;1.80;;;;;;;;;;12689030;23;20398;-91
2022/11/06 14:55:21;;;;;;;4.63;2.30;;;;;;;;;;12707326;23;20409;-89
2022/11/06 15:00:46;;;;;;;4.95;2.35;;;;;;;;;;12778890;23;20380;-90
2022/11/06 15:05:53;;;;;;;3.20;2.17;;;;;;;;;;12780466;23;20418;-89
2022/11/06 15:10:59;;;;;;;10.57;2.80;;;;;;;;;;12784864;23;20466;-88
2022/11/06 15:16:13;;;;;;;4.82;1.95;;;;;;;;;;12785767;23;20689;-89
2022/11/06 15:21:24;;;;;;;4.65;2.25;;;;;;;;;;12786712;23;20395;-91
2022/11/06 15:26:33;;;;;;;5.77;3.23;;;;;;;;;;12785532;23;20382;-90
2022/11/06 15:31:41;;;;;;;16.25;5.60;;;;;;;;;;12786043;23;20462;-89
2022/11/06 15:36:54;;;;;;;9.35;4.53;;;;;;;;;;12785432;23;20466;-87
2022/11/06 15:41:57;;;;;;;22.67;8.70;;;;;;;;;;12781900;23;21165;-88
2022/11/06 15:47:03;;;;;;;6.95;3.40;;;;;;;;;;12785920;23;20384;-89
2022/11/06 15:52:17;;;;;;;6.90;4.00;;;;;;;;;;12786153;23;20848;-88
2022/11/06 15:57:24;;;;;;;7.50;2.92;;;;;;;;;;12785283;23;20457;-89
2022/11/06 16:02:31;;;;;;;13.47;3.77;;;;;;;;;;12789236;23;20954;-87
2022/11/06 16:07:53;;;;;;;5.32;2.95;;;;;;;;;;12810873;23;20454;-87
2022/11/06 16:13:09;;;;;;;6.30;3.33;;;;;;;;;;12778969;23;20896;-86
2022/11/06 16:18:28;;;;;;;5.25;3.30;;;;;;;;;;12779974;23;20389;-89
2022/11/06 16:23:38;;;;;;;5.80;3.90;;;;;;;;;;12778491;23;20391;-89
2022/11/06 16:29:01;;;;;;;8.47;4.30;;;;;;;;;;12778096;23;20396;-88
2022/11/06 16:34:22;;;;;;;10.07;5.20;;;;;;;;;;12776936;23;20388;-88
2022/11/06 16:39:58;;;;;;;8.33;5.73;;;;;;;;;;12773630;23;20860;-89
2022/11/06 16:45:12;;;;;;;9.70;5.83;;;;;;;;;;12754700;23;20470;-89
2022/11/06 16:50:54;;;;;;;7.50;4.60;;;;;;;;;;12779737;23;22421;-90
2022/11/06 16:56:00;;;;;;;11.00;6.50;;;;;;;;;;12771230;23;20466;-89
2022/11/06 17:01:21;;;;;;;11.25;7.00;;;;;;;;;;12779737;23;20481;-88
2022/11/06 17:06:29;;;;;;;11.60;6.72;;;;;;;;;;12780051;23;20417;-89
2022/11/06 17:11:34;;;;;;;14.43;7.53;;;;;;;;;;12774655;23;20383;-87
2022/11/06 17:16:47;;;;;;;10.47;6.17;;;;;;;;;;12777953;23;20398;-92
2022/11/06 17:22:18;;;;;;;11.13;6.23;;;;;;;;;;12784443;23;20387;-91
2022/11/06 17:27:22;;;;;;;12.75;6.38;;;;;;;;;;12782838;23;20407;-93
2022/11/06 17:32:25;;;;;;;10.07;5.77;;;;;;;;;;12788988;23;20389;-94
2022/11/06 17:37:44;;;;;;;12.40;6.82;;;;;;;;;;12793463;23;20379;-93
2022/11/06 17:42:46;;;;;;;19.92;10.43;;;;;;;;;;12789897;23;20686;-92
2022/11/06 17:47:51;;;;;;;17.27;8.83;;;;;;;;;;12787704;23;20379;-95
2022/11/06 17:52:54;;;;;;;13.82;8.80;;;;;;;;;;12783902;23;20379;-94
2022/11/06 17:58:07;;;;;;;;;;;;;;;;;;;;;
2022/11/06 18:03:22;;;;;;;12.50;7.97;;;;;;;;;;12785611;23;20418;-96
2022/11/06 18:08:25;;;;;;;14.05;8.20;;;;;;;;;;12782982;23;20383;-94
2022/11/06 18:13:27;;;;;;;14.43;8.88;;;;;;;;;;12779971;23;20410;-92
2022/11/06 18:18:29;;;;;;;14.57;8.90;;;;;;;;;;12780595;23;20390;-94
2022/11/06 18:23:39;;;;;;;16.75;10.52;;;;;;;;;;12778326;23;20388;-94
2022/11/06 18:28:41;;;;;;;19.52;10.27;;;;;;;;;;12783021;23;20415;-94
2022/11/06 18:33:43;;;;;;;17.50;11.53;;;;;;;;;;12784591;23;20380;-95
2022/11/06 18:38:47;;;;;;;23.27;14.70;;;;;;;;;;12784712;23;20391;-95
2022/11/06 18:43:49;;;;;;;23.30;14.88;;;;;;;;;;12785145;23;20475;-93
2022/11/06 18:48:51;;;;;;;27.52;15.65;;;;;;;;;;12785674;23;20545;-95
2022/11/06 18:53:58;;;;;;;25.07;16.37;;;;;;;;;;12784574;23;20395;-94
2022/11/06 18:59:00;;;;;;;27.27;17.20;;;;;;;;;;12785340;23;20394;-94
2022/11/06 19:04:03;;;;;;;24.13;15.30;;;;;;;;;;12786068;23;20394;-93
2022/11/06 19:09:07;;;;;;;25.53;15.67;;;;;;;;;;12787324;23;20599;-93
2022/11/06 19:14:09;;;;;;;25.88;15.50;;;;;;;;;;12792163;23;20384;-94
2022/11/06 19:19:11;;;;;;;25.97;17.10;;;;;;;;;;12786233;23;20454;-95
2022/11/06 19:24:15;;;;;;;22.23;14.55;;;;;;;;;;12788280;23;20442;-92
2022/11/06 19:29:17;;;;;;;22.08;14.98;;;;;;;;;;12789409;23;20375;-93
2022/11/06 19:34:24;;;;;;;22.35;14.60;;;;;;;;;;12788970;23;20384;-93
2022/11/06 19:39:27;;;;;;;22.27;14.68;;;;;;;;;;12817613;23;20484;-92
2022/11/06 19:44:29;;;;;;;24.05;15.30;;;;;;;;;;12783872;23;20391;-93
2022/11/06 19:49:32;;;;;;;22.05;14.52;;;;;;;;;;12781925;23;20379;-92
2022/11/06 19:54:35;;;;;;;24.00;15.52;;;;;;;;;;12781609;23;20387;-94
2022/11/06 19:59:37;;;;;;;25.48;16.25;;;;;;;;;;12781695;23;20909;-86
2022/11/06 20:11:25;;;;;;;;;;;;;;;;;;;;;
2022/11/06 20:17:16;;;;;;;24.50;17.33;;;;;;;;;;12788194;23;20768;-96
2022/11/06 20:35:01;;;;;;;22.67;15.32;;;;;;;;;;12777963;23;20411;-96
2022/11/06 20:46:26;;;;;;;26.55;15.60;;;;;;;;;;12781473;23;20387;-94
2022/11/06 21:41:30;;;;;;;;;;;;;;;;;;;;;
2022/11/06 21:59:00;;;;;;;20.98;14.32;;;;;;;;;;12756807;23;20407;-94
2022/11/06 22:04:33;;;;;;;21.70;14.30;;;;;;;;;;12788270;23;20384;-96
2022/11/06 22:15:56;;;;;;;22.63;14.70;;;;;;;;;;12786214;23;20375;-95
2022/11/06 22:27:08;;;;;;;25.25;15.48;;;;;;;;;;12782713;23;20435;-95
2022/11/06 22:32:23;;;;;;;21.15;14.63;;;;;;;;;;12785534;23;20386;-95
2022/11/06 23:17:10;;;;;;;22.00;13.10;;;;;;;;;;12313539;23;20750;-94
2022/11/06 23:38:46;;;;;;;20.00;12.23;;;;;;;;;;12787355;23;20407;-96
2022/11/06 23:43:54;;;;;;;18.35;11.77;;;;;;;;;;12827772;23;20383;-96
2022/11/06 23:48:59;;;;;;;17.25;11.98;;;;;;;;;;12817091;23;20372;-95
2022/11/06 23:54:05;;;;;;;19.92;12.27;;;;;;;;;;12815485;23;20379;-95
2022/11/06 23:59:16;;;;;;;24.73;14.30;;;;;;;;;;12823385;23;20368;-96
